Airfield :
LOGIN :

Register | Disclaimer

   EN    FR    IT 

 










Legend :    VFR   Marginal VFR   IFR   Intensive IFR   Very Intensive IFR
Visi :
Ceiling :
>= 8 km
>= 3000ft
5 to 8 km
1000 to 3000 ft
1500m to 5 km
500 to 1000 ft
800 to 1500m
200 to 500 ft
< 800m
< 200 ft
Symbols :   Thunderstorms  Fog  Heavy snow  Heavy precipitations  Wind > 20 kt
SIGMETs :     Misc.  Thunderstorms  Icing  Turbulence  Mountain Waves  Volcanic Ashes







- Airport Elevation : 138 ft
- IATA code : BIO


LEBB - Bilbao

CURRENT METAR :
  • 171430Z 20007KT 160V260 CAVOK 21/M05 Q1018 NOSIG

EXPIRED METARs :
  • 171400Z 21008KT 140V270 CAVOK 21/M06 Q1019 NOSIG
  • 171330Z 21009G19KT 140V310 CAVOK 21/M04 Q1019 NOSIG
  • 171300Z 19011G21KT 120V250 CAVOK 21/M03 Q1020 NOSIG
  • 171230Z 20013G26KT 120V260 CAVOK 20/M04 Q1020 NOSIG
  • 171200Z 20010KT 130V270 CAVOK 20/M03 Q1020 NOSIG
  • 171130Z 19013KT 120V290 CAVOK 20/M04 Q1021 NOSIG

TAF TAF LEBB
Valid from the 17 at 12:00 until the 18 at 12:00 UTC


171100Z 1712/1812 18009KT CAVOK TX19/1715Z TN06/1806Z
TEMPO 1712/1715 18015G25KT
No reported NOTAMs for that airfield.
1 SIGMET reported for the Madrid FIR (LECM) :
 
Severe mountain waves
LECM SIGMET 4 VALID 171200/171500 LEVA
LECM MADRID FIR/UIR SEV MTW OBS AT 1157Z WI N4335 W00729 - N4220 W00652 - N4257 W00344 - N4334 W00334 - N4335 W00729 SFC/FL300 STNR NC=



MET'MAP, your aeronautical weather chart ! - Copyright ORBIFLY December 2007 - Disclaimer

ORBIFLY MET'MAP TEAM :

Programming & Development : Alexandra Zaïnal
Concept & Development : Baudouin d'Aumeries
Co-Development & Prog : Marc-Olivier Méhu
Technical & hardware support : Manuel Goepfert

Contact : metmap@orbifly.com




SOURCES & CREDITS :

   NOAA